El Dorado International Airport
SKBO : now visible

Airfield :











YOU CAN JOIN US ON...

 
LOGIN :

Register | Disclaimer

   EN    FR    IT 

 









Legend :    VFR   Marginal VFR   IFR   Intensive IFR   Very Intensive IFR
Visi :
Ceiling :
>= 8 km
>= 3000ft
5 to 8 km
1000 to 3000 ft
1500m to 5 km
500 to 1000 ft
800 to 1500m
200 to 500 ft
< 800m
< 200 ft
Symbols :   Thunderstorms  Fog  Heavy snow  Heavy precipitations  Wind > 20 kt






- Airport Elevation : 8361 ft
- IATA code : BOG


SKBO - El Dorado International

CURRENT METAR :
  • 170100Z VRB02KT 9999 SCT025 12/12 Q1028 NOSIG

EXPIRED METARs :
  • 170000Z 35004KT 9999 SCT025 12/12 Q1028 NOSIG
  • 162300Z 31006KT 9999 FEW025 14/13 Q1027 NOSIG
  • 162200Z 13008KT 9999 SCT025 17/09 Q1026 NOSIG
  • 162100Z 12006KT 9999 SCT025 18/10 Q1026 NOSIG

TAF TAF SKBO
Valid from the 17 at 00:00 until the 18 at 00:00 UTC


162230Z 1700/1724 10012KT 9999 FEW020
BECMG 1701/1703 VRB02KT
PROB40
TEMPO 1707/1710 DZ SCT015
BECMG 1711/1713 05006KT TX20/1719Z TN09/1710Z
SKED FIR / South America



MET'MAP, your aeronautical weather chart ! - Copyright ORBIFLY December 2007 - Disclaimer

ORBIFLY MET'MAP TEAM :

Programming & Development : Alexandra Zaïnal
Original concept : Baudouin d'Aumeries
Technical & hardware support : Manuel Goepfert
Assistance : Marc-Olivier Méhu




SOURCES & CREDITS :

   NOAA       Earth
Advisory